createdAt,value
2022-09-29T00:01:09.581Z,3.90
2022-09-29T00:03:37.622Z,4.90
2022-09-29T00:06:11.125Z,4.22
2022-09-29T00:08:38.629Z,5.47
2022-09-29T00:11:10.787Z,3.67
2022-09-29T00:13:38.241Z,6.47
2022-09-29T00:16:05.831Z,4.00
2022-09-29T00:18:35.114Z,5.05
2022-09-29T00:21:05.652Z,5.88
2022-09-29T00:23:35.096Z,4.43
2022-09-29T00:26:03.988Z,5.88
2022-09-29T00:28:32.396Z,4.85
2022-09-29T00:31:01.378Z,6.43
2022-09-29T00:33:33.831Z,4.18
2022-09-29T00:36:04.215Z,3.53
2022-09-29T00:38:32.293Z,4.47
2022-09-29T00:40:59.749Z,3.50
2022-09-29T00:43:51.275Z,4.63
2022-09-29T00:46:38.853Z,5.65
2022-09-29T00:49:14.832Z,6.40
2022-09-29T00:51:45.071Z,3.70
2022-09-29T00:54:12.645Z,5.27
2022-09-29T00:56:42.438Z,6.18
2022-09-29T00:59:17.345Z,3.90
2022-09-29T01:01:44.857Z,9.85
2022-09-29T01:04:16.400Z,4.65
2022-09-29T01:06:51.877Z,3.92
2022-09-29T01:09:23.552Z,4.72
2022-09-29T01:11:58.264Z,3.72
2022-09-29T01:14:28.614Z,5.15
2022-09-29T01:16:56.105Z,5.38
2022-09-29T01:19:47.382Z,3.25
2022-09-29T01:25:21.832Z,2.95
2022-09-29T01:28:13.541Z,2.78
2022-09-29T01:30:50.107Z,3.70
2022-09-29T01:33:34.854Z,3.83
2022-09-29T01:36:20.695Z,4.35
2022-09-29T01:39:14.128Z,4.68
2022-09-29T01:41:53.082Z,3.72
2022-09-29T01:44:44.802Z,6.88
2022-09-29T01:47:47.580Z,4.63
2022-09-29T01:50:30.707Z,4.80
2022-09-29T01:53:06.875Z,4.72
2022-09-29T01:55:38.333Z,5.07
2022-09-29T01:58:09.571Z,3.65
2022-09-29T02:00:45.782Z,6.93
2022-09-29T02:03:28.245Z,3.83
2022-09-29T02:05:59.308Z,5.22
2022-09-29T02:08:33.041Z,3.70
2022-09-29T02:11:04.772Z,4.45
2022-09-29T02:13:37.193Z,3.95
2022-09-29T02:16:07.100Z,5.05
2022-09-29T02:18:49.250Z,3.95
2022-09-29T02:21:16.791Z,2.70
2022-09-29T02:23:44.133Z,3.28
2022-09-29T02:26:13.074Z,3.40
2022-09-29T02:28:41.997Z,2.92
2022-09-29T02:31:09.425Z,5.75
2022-09-29T02:33:36.849Z,3.58
2022-09-29T02:36:16.410Z,5.25
2022-09-29T02:38:57.340Z,2.13
2022-09-29T02:41:45.295Z,2.65
2022-09-29T02:44:26.818Z,2.33
2022-09-29T02:47:30.083Z,2.65
2022-09-29T02:50:15.119Z,2.90
2022-09-29T02:53:04.047Z,2.42
2022-09-29T02:55:49.219Z,3.00
2022-09-29T02:58:31.235Z,2.75
2022-09-29T03:01:00.019Z,3.03
2022-09-29T03:03:27.463Z,2.50
2022-09-29T03:05:55.211Z,3.05
2022-09-29T03:08:22.562Z,4.57
2022-09-29T03:10:49.940Z,4.07
2022-09-29T03:13:17.235Z,4.45
2022-09-29T03:15:44.592Z,4.57
2022-09-29T03:18:11.918Z,4.88
2022-09-29T03:20:39.307Z,3.55
2022-09-29T03:23:06.648Z,4.57
2022-09-29T03:25:33.967Z,6.20
2022-09-29T03:28:01.583Z,3.75
2022-09-29T03:30:28.957Z,3.83
2022-09-29T03:32:56.384Z,6.45
2022-09-29T03:35:23.701Z,3.10
2022-09-29T03:37:51.025Z,5.57
2022-09-29T03:40:18.477Z,3.58
2022-09-29T03:42:47.524Z,5.55
2022-09-29T03:45:15.025Z,3.75
2022-09-29T03:47:42.357Z,6.82
2022-09-29T03:50:10.204Z,6.45
2022-09-29T03:52:37.544Z,2.88
2022-09-29T03:55:05.311Z,3.95
2022-09-29T03:57:32.676Z,3.70
2022-09-29T04:00:00.047Z,9.80
2022-09-29T04:02:27.524Z,15.68
2022-09-29T04:04:54.913Z,10.90
2022-09-29T04:07:22.243Z,8.90
2022-09-29T04:09:49.596Z,7.05
2022-09-29T04:12:16.991Z,7.70
2022-09-29T04:14:44.363Z,6.25
2022-09-29T04:17:11.740Z,5.82
2022-09-29T04:19:39.663Z,5.97
2022-09-29T04:22:06.969Z,8.43
2022-09-29T04:24:34.286Z,5.50
2022-09-29T04:27:01.637Z,4.38
2022-09-29T04:29:28.972Z,3.63
2022-09-29T04:31:56.348Z,4.10
2022-09-29T04:34:23.750Z,5.70
2022-09-29T04:36:51.170Z,6.10
2022-09-29T04:39:18.582Z,5.63
2022-09-29T04:41:46.165Z,8.43
2022-09-29T04:44:13.558Z,7.20
2022-09-29T04:46:41.060Z,6.55
2022-09-29T04:49:08.843Z,7.80
2022-09-29T04:51:36.326Z,5.00
2022-09-29T04:54:03.801Z,8.48
2022-09-29T04:56:31.758Z,8.82
2022-09-29T04:58:59.489Z,5.97
2022-09-29T05:01:27.468Z,6.43
2022-09-29T05:03:54.848Z,7.57
2022-09-29T05:06:22.693Z,6.90
2022-09-29T05:08:50.080Z,5.53
2022-09-29T05:11:17.454Z,6.55
2022-09-29T05:13:44.915Z,5.45
2022-09-29T05:16:12.232Z,6.38
2022-09-29T05:18:39.590Z,5.82
2022-09-29T05:21:28.000Z,6.75
2022-09-29T05:23:56.937Z,5.47
2022-09-29T05:26:24.650Z,6.82
2022-09-29T05:28:52.102Z,7.63
2022-09-29T05:31:19.625Z,5.75
2022-09-29T05:33:47.077Z,6.25
2022-09-29T05:36:14.494Z,4.68
2022-09-29T05:38:41.856Z,6.18
2022-09-29T05:41:13.476Z,8.05
2022-09-29T05:43:41.089Z,5.63
2022-09-29T05:46:11.121Z,5.30
2022-09-29T05:48:38.701Z,5.53
2022-09-29T05:51:12.005Z,3.53
2022-09-29T05:53:40.396Z,4.53
2022-09-29T05:56:34.762Z,4.13
2022-09-29T05:59:02.340Z,3.40
2022-09-29T06:01:33.329Z,3.20
2022-09-29T06:06:29.449Z,5.85
2022-09-29T06:08:59.082Z,3.15
2022-09-29T06:11:28.779Z,4.38
2022-09-29T06:13:56.901Z,3.25
2022-09-29T06:16:27.165Z,2.35
2022-09-29T06:18:54.907Z,3.23
2022-09-29T06:21:24.608Z,3.22
2022-09-29T06:23:54.422Z,2.83
2022-09-29T06:26:24.458Z,2.90
2022-09-29T06:28:53.329Z,3.97
2022-09-29T06:31:23.349Z,4.03
2022-09-29T06:33:51.113Z,4.07
2022-09-29T06:36:45.118Z,2.20
2022-09-29T06:39:14.375Z,2.88
2022-09-29T06:41:43.306Z,2.42
2022-09-29T06:44:10.915Z,4.05
2022-09-29T06:46:38.435Z,2.83
2022-09-29T06:49:05.866Z,4.00
2022-09-29T06:51:44.580Z,2.38
2022-09-29T06:54:20.553Z,4.38
2022-09-29T06:56:52.691Z,4.50
2022-09-29T06:59:20.470Z,3.00
2022-09-29T07:01:51.471Z,4.30
2022-09-29T07:04:21.023Z,5.32
2022-09-29T07:06:49.651Z,2.88
2022-09-29T07:09:17.655Z,5.55
2022-09-29T07:11:47.104Z,5.50
2022-09-29T07:14:16.285Z,2.20
2022-09-29T07:16:44.947Z,5.63
2022-09-29T07:19:12.494Z,5.07
2022-09-29T07:21:40.039Z,3.72
2022-09-29T07:24:08.010Z,5.53
2022-09-29T07:26:36.061Z,2.88
2022-09-29T07:29:03.707Z,3.70
2022-09-29T07:31:39.893Z,6.35
2022-09-29T07:34:12.884Z,1.83
2022-09-29T07:36:40.467Z,2.58
2022-09-29T07:39:07.918Z,2.25
2022-09-29T07:41:35.379Z,3.58
2022-09-29T07:44:03.207Z,3.78
2022-09-29T07:46:30.820Z,8.10
2022-09-29T07:48:58.264Z,3.67
2022-09-29T07:51:25.802Z,3.50
2022-09-29T07:53:53.253Z,4.65
2022-09-29T07:56:23.100Z,3.25
2022-09-29T07:58:51.313Z,4.30
2022-09-29T08:01:20.279Z,2.75
2022-09-29T08:03:54.761Z,3.38
2022-09-29T08:06:23.917Z,3.72
2022-09-29T08:09:02.868Z,2.63
2022-09-29T08:11:34.480Z,1.58
2022-09-29T08:14:02.226Z,3.47
2022-09-29T08:16:30.480Z,1.42
2022-09-29T08:18:58.642Z,3.22
2022-09-29T08:21:26.155Z,1.80
2022-09-29T08:26:43.965Z,1.95
2022-09-29T08:29:16.762Z,2.80
2022-09-29T08:31:44.767Z,1.80
2022-09-29T08:34:14.030Z,1.00
2022-09-29T08:39:26.668Z,1.80
2022-09-29T08:45:09.288Z,2.35
2022-09-29T08:53:29.543Z,2.67
2022-09-29T08:56:04.982Z,4.13
2022-09-29T08:58:33.955Z,1.02
2022-09-29T09:01:21.435Z,1.75
2022-09-29T09:04:00.771Z,3.13
2022-09-29T09:06:34.099Z,1.88
2022-09-29T09:09:13.518Z,1.75
2022-09-29T09:12:03.431Z,1.63
2022-09-29T09:15:03.645Z,2.67
2022-09-29T09:17:43.838Z,3.38
2022-09-29T09:20:33.286Z,2.50
2022-09-29T09:23:31.584Z,2.03
2022-09-29T09:26:02.540Z,2.08
2022-09-29T09:28:34.949Z,2.38
2022-09-29T09:31:15.419Z,2.05
2022-09-29T09:34:06.453Z,1.63
2022-09-29T09:39:31.243Z,1.77
2022-09-29T09:42:00.496Z,2.80
2022-09-29T09:44:35.010Z,1.40
2022-09-29T09:47:24.689Z,2.58
2022-09-29T09:49:59.896Z,2.83
2022-09-29T09:52:45.354Z,2.80
2022-09-29T09:55:21.221Z,2.03
2022-09-29T09:58:10.377Z,2.08
2022-09-29T10:01:08.449Z,2.10
2022-09-29T10:03:37.258Z,2.83
2022-09-29T10:06:08.202Z,3.22
2022-09-29T10:08:39.958Z,4.13
2022-09-29T10:11:33.312Z,4.85
2022-09-29T10:14:13.397Z,3.72
2022-09-29T10:16:50.674Z,2.80
2022-09-29T10:19:44.952Z,1.83
2022-09-29T10:22:15.051Z,2.15
2022-09-29T10:24:42.449Z,1.47
2022-09-29T10:27:11.258Z,2.13
2022-09-29T10:29:42.172Z,2.65
2022-09-29T10:32:12.257Z,1.90
2022-09-29T10:34:43.101Z,1.90
2022-09-29T10:37:23.932Z,2.25
2022-09-29T10:40:01.923Z,1.67
2022-09-29T10:42:35.996Z,2.95
2022-09-29T10:45:16.113Z,2.22
2022-09-29T10:48:06.572Z,2.83
2022-09-29T10:53:37.111Z,2.45
2022-09-29T10:56:27.767Z,1.42
2022-09-29T10:59:06.087Z,1.75
2022-09-29T11:01:43.471Z,1.90
2022-09-29T11:04:25.155Z,1.50
2022-09-29T11:06:53.327Z,2.20
2022-09-29T11:09:20.913Z,1.52
2022-09-29T11:11:48.546Z,2.13
2022-09-29T11:14:37.588Z,1.35
2022-09-29T11:17:22.045Z,1.58
2022-09-29T11:19:51.530Z,1.42
2022-09-29T11:22:26.237Z,2.22
2022-09-29T11:24:58.749Z,1.80
2022-09-29T11:28:01.430Z,1.23
2022-09-29T11:31:02.115Z,2.53
2022-09-29T11:33:57.382Z,1.75
2022-09-29T11:36:57.950Z,2.35
2022-09-29T11:39:46.062Z,2.63
2022-09-29T11:42:34.934Z,3.13
2022-09-29T11:45:04.669Z,2.95
2022-09-29T11:47:38.101Z,3.63
2022-09-29T11:50:31.481Z,1.48
2022-09-29T11:53:33.390Z,2.10
2022-09-29T11:56:37.288Z,3.17
2022-09-29T11:59:07.434Z,1.85
2022-09-29T12:08:16.276Z,2.13
2022-09-29T12:10:52.680Z,2.05
2022-09-29T12:13:22.741Z,1.20
2022-09-29T12:16:00.575Z,2.73
2022-09-29T12:18:42.695Z,1.70
2022-09-29T12:21:16.984Z,1.60
2022-09-29T12:23:47.702Z,3.38
2022-09-29T12:26:19.418Z,4.00
2022-09-29T12:28:58.828Z,2.55
2022-09-29T12:31:33.084Z,1.88
2022-09-29T12:34:24.232Z,2.83
2022-09-29T12:39:53.267Z,2.13
2022-09-29T12:42:39.124Z,2.28
2022-09-29T12:45:10.880Z,2.08
2022-09-29T12:48:02.008Z,1.67
2022-09-29T12:50:36.265Z,2.08
2022-09-29T12:53:15.719Z,3.30
2022-09-29T12:56:03.201Z,2.60
2022-09-29T12:58:48.164Z,2.50
2022-09-29T13:01:24.223Z,2.75
2022-09-29T13:04:14.779Z,1.25
2022-09-29T13:10:27.735Z,1.92
2022-09-29T13:13:12.707Z,3.95
2022-09-29T13:16:07.055Z,2.92
2022-09-29T13:18:54.251Z,5.20
2022-09-29T13:21:55.146Z,2.17
2022-09-29T13:24:57.939Z,2.13
2022-09-29T13:27:44.797Z,2.30
2022-09-29T13:30:16.291Z,3.40
2022-09-29T13:32:54.011Z,3.97
2022-09-29T13:35:25.209Z,3.40
2022-09-29T13:37:56.665Z,3.67
2022-09-29T13:43:48.298Z,2.65
2022-09-29T13:46:31.289Z,2.92
2022-09-29T13:49:13.723Z,5.63
2022-09-29T13:51:50.660Z,3.00
2022-09-29T13:54:37.947Z,2.97
2022-09-29T13:57:08.422Z,1.95
2022-09-29T13:59:39.705Z,3.17
2022-09-29T14:02:29.898Z,3.58
2022-09-29T14:04:58.990Z,3.10
2022-09-29T14:07:55.968Z,2.75
2022-09-29T14:10:39.840Z,3.88
2022-09-29T14:13:24.660Z,2.72
2022-09-29T14:16:22.168Z,5.35
2022-09-29T14:18:54.447Z,2.47
2022-09-29T14:21:46.385Z,2.40
2022-09-29T14:24:40.012Z,2.25
2022-09-29T14:27:53.741Z,2.05
2022-09-29T14:30:36.022Z,3.53
2022-09-29T14:33:25.046Z,3.60
2022-09-29T14:36:03.893Z,4.22
2022-09-29T14:38:36.991Z,2.80
2022-09-29T14:41:34.326Z,4.03
2022-09-29T14:44:13.388Z,3.10
2022-09-29T14:47:14.765Z,3.78
2022-09-29T14:52:43.718Z,3.30
2022-09-29T14:55:26.038Z,4.38
2022-09-29T14:57:56.349Z,3.65
2022-09-29T15:00:35.004Z,5.07
2022-09-29T15:03:23.645Z,3.10
2022-09-29T15:06:05.646Z,5.57
2022-09-29T15:08:34.498Z,4.95
2022-09-29T15:11:02.247Z,3.97
2022-09-29T15:13:31.870Z,6.57
2022-09-29T15:16:17.212Z,4.15
2022-09-29T15:18:53.225Z,5.50
2022-09-29T15:21:35.902Z,7.10
2022-09-29T15:24:29.288Z,6.15
2022-09-29T15:27:00.735Z,6.20
2022-09-29T15:29:28.569Z,5.45
2022-09-29T15:31:56.130Z,4.60
2022-09-29T15:34:28.486Z,7.75
2022-09-29T15:36:58.251Z,8.90
2022-09-29T15:39:31.957Z,23.20
2022-09-29T15:42:30.332Z,10.40
2022-09-29T15:45:02.976Z,8.77
2022-09-29T15:47:40.421Z,10.52
2022-09-29T15:50:25.243Z,9.10
2022-09-29T15:52:52.925Z,7.50
2022-09-29T15:55:23.573Z,11.48
2022-09-29T15:57:57.946Z,10.35
2022-09-29T16:00:27.017Z,11.38
2022-09-29T16:03:06.285Z,10.77
2022-09-29T16:05:40.220Z,11.27
2022-09-29T16:08:23.076Z,11.00
2022-09-29T16:10:56.127Z,12.93
2022-09-29T16:13:39.264Z,9.55
2022-09-29T16:16:10.613Z,12.32
2022-09-29T16:18:50.421Z,8.73
2022-09-29T16:21:20.641Z,12.52
2022-09-29T16:24:19.114Z,8.77
2022-09-29T16:26:55.258Z,10.68
2022-09-29T16:29:25.418Z,13.57
2022-09-29T16:31:53.749Z,15.73
2022-09-29T16:34:21.384Z,16.77
2022-09-29T16:36:49.933Z,17.17
2022-09-29T16:39:20.301Z,22.65
2022-09-29T16:41:49.685Z,14.13
2022-09-29T16:44:24.688Z,15.00
2022-09-29T16:46:54.358Z,12.95
2022-09-29T16:49:26.274Z,15.90
2022-09-29T16:51:56.681Z,12.50
2022-09-29T16:54:26.572Z,14.77
2022-09-29T16:57:27.738Z,15.57
2022-09-29T16:59:57.509Z,16.65
2022-09-29T17:02:26.439Z,16.15
2022-09-29T17:04:55.341Z,13.20
2022-09-29T17:07:26.603Z,15.55
2022-09-29T17:09:57.253Z,15.05
2022-09-29T17:12:26.823Z,13.10
2022-09-29T17:14:54.400Z,14.93
2022-09-29T17:17:27.126Z,13.38
2022-09-29T17:19:59.046Z,24.23
2022-09-29T17:22:35.138Z,24.08
2022-09-29T17:25:03.556Z,16.30
2022-09-29T17:27:49.632Z,11.25
2022-09-29T17:30:23.467Z,14.07
2022-09-29T17:32:54.134Z,12.27
2022-09-29T17:35:28.033Z,12.65
2022-09-29T17:37:56.468Z,9.07
2022-09-29T17:40:48.484Z,7.80
2022-09-29T17:43:17.876Z,9.25
2022-09-29T17:45:46.033Z,10.00
2022-09-29T17:48:13.500Z,9.48
2022-09-29T17:50:50.166Z,8.52
2022-09-29T17:53:19.187Z,8.50
2022-09-29T17:55:51.915Z,8.05
2022-09-29T17:58:20.148Z,5.35
2022-09-29T18:00:50.338Z,8.88
2022-09-29T18:03:20.118Z,8.80
2022-09-29T18:05:55.822Z,7.60
2022-09-29T18:08:25.583Z,9.30
2022-09-29T18:10:57.044Z,8.80
2022-09-29T18:13:27.890Z,7.57
2022-09-29T18:15:56.455Z,8.85
2022-09-29T18:18:24.412Z,7.45
2022-09-29T18:20:51.982Z,6.20
2022-09-29T18:23:20.859Z,7.40
2022-09-29T18:25:51.525Z,7.60
2022-09-29T18:28:19.009Z,8.13
2022-09-29T18:30:52.014Z,9.10
2022-09-29T18:33:20.406Z,7.50
2022-09-29T18:35:55.970Z,9.13
2022-09-29T18:38:26.383Z,6.75
2022-09-29T18:40:55.881Z,6.57
2022-09-29T18:43:26.056Z,7.68
2022-09-29T18:45:55.704Z,6.30
2022-09-29T18:48:23.715Z,6.65
2022-09-29T18:50:55.306Z,7.45
2022-09-29T18:53:25.368Z,6.05
2022-09-29T18:55:57.664Z,9.52
2022-09-29T18:58:25.235Z,6.53
2022-09-29T19:00:55.461Z,6.78
2022-09-29T19:03:25.405Z,8.05
2022-09-29T19:05:54.237Z,6.90
2022-09-29T19:08:21.992Z,6.88
2022-09-29T19:10:55.379Z,6.82
2022-09-29T19:13:23.894Z,8.27
2022-09-29T19:15:55.594Z,7.20
2022-09-29T19:18:27.394Z,9.55
2022-09-29T19:20:58.089Z,6.80
2022-09-29T19:23:27.167Z,5.97
2022-09-29T19:25:58.596Z,7.75
2022-09-29T19:28:27.493Z,6.90
2022-09-29T19:30:56.089Z,5.63
2022-09-29T19:33:24.096Z,6.75
2022-09-29T19:35:54.839Z,7.78
2022-09-29T19:38:22.835Z,6.60
2022-09-29T19:40:51.800Z,6.82
2022-09-29T19:43:21.728Z,8.60
2022-09-29T19:45:50.296Z,6.50
2022-09-29T19:48:23.206Z,7.80
2022-09-29T19:51:17.248Z,6.65
2022-09-29T19:53:47.379Z,9.82
2022-09-29T19:56:17.601Z,7.50
2022-09-29T19:58:45.199Z,6.90
2022-09-29T20:01:13.103Z,7.20
2022-09-29T20:03:41.959Z,6.88
2022-09-29T20:06:10.582Z,7.20
2022-09-29T20:08:37.949Z,6.35
2022-09-29T20:11:07.574Z,6.72
2022-09-29T20:13:35.079Z,8.65
2022-09-29T20:16:02.982Z,6.43
2022-09-29T20:18:30.471Z,8.77
2022-09-29T20:20:57.891Z,7.70
2022-09-29T20:23:25.199Z,7.95
2022-09-29T20:26:02.353Z,8.73
2022-09-29T20:28:40.274Z,7.00
2022-09-29T20:31:09.026Z,6.68
2022-09-29T20:33:37.113Z,9.73
2022-09-29T20:36:05.458Z,8.18
2022-09-29T20:38:34.544Z,9.15
2022-09-29T20:41:03.294Z,8.60
2022-09-29T20:43:30.790Z,8.48
2022-09-29T20:46:04.312Z,8.45
2022-09-29T20:48:34.672Z,11.32
2022-09-29T20:51:10.655Z,15.82
2022-09-29T20:53:40.568Z,14.25
2022-09-29T20:56:42.602Z,8.27
2022-09-29T20:59:24.366Z,10.30
2022-09-29T21:01:53.735Z,8.48
2022-09-29T21:04:30.599Z,7.35
2022-09-29T21:06:58.191Z,9.00
2022-09-29T21:09:26.606Z,8.30
2022-09-29T21:11:54.924Z,8.23
2022-09-29T21:14:26.711Z,8.98
2022-09-29T21:16:54.603Z,8.15
2022-09-29T21:19:26.118Z,9.48
2022-09-29T21:21:55.266Z,10.93
2022-09-29T21:24:22.817Z,8.98
2022-09-29T21:26:50.306Z,13.07
2022-09-29T21:29:18.766Z,9.80
2022-09-29T21:31:46.864Z,14.77
2022-09-29T21:34:15.659Z,11.50
2022-09-29T21:36:43.335Z,10.23
2022-09-29T21:39:11.100Z,13.70
2022-09-29T21:41:41.146Z,13.30
2022-09-29T21:44:13.323Z,9.63
2022-09-29T21:46:40.784Z,11.88
2022-09-29T21:49:09.794Z,10.00
2022-09-29T21:51:43.451Z,8.88
2022-09-29T21:54:19.547Z,8.32
2022-09-29T21:56:47.706Z,8.35
2022-09-29T21:59:17.397Z,7.80
2022-09-29T22:01:46.043Z,8.45
2022-09-29T22:04:14.362Z,8.45
2022-09-29T22:06:45.007Z,7.95
2022-09-29T22:09:17.103Z,9.45
2022-09-29T22:11:45.367Z,10.30
2022-09-29T22:14:14.233Z,8.20
2022-09-29T22:16:41.729Z,10.30
2022-09-29T22:19:23.029Z,7.70
2022-09-29T22:21:58.659Z,12.85
2022-09-29T22:24:27.866Z,10.68
2022-09-29T22:26:55.570Z,9.35
2022-09-29T22:29:23.105Z,13.13
2022-09-29T22:31:50.884Z,18.02
2022-09-29T22:34:18.409Z,12.25
2022-09-29T22:36:45.848Z,11.73
2022-09-29T22:39:13.250Z,9.82
2022-09-29T22:41:41.303Z,9.43
2022-09-29T22:44:08.920Z,9.02
2022-09-29T22:46:36.669Z,11.02
2022-09-29T22:49:04.590Z,9.02
2022-09-29T22:51:32.306Z,9.85
2022-09-29T22:53:59.803Z,13.75
2022-09-29T22:56:29.947Z,10.95
2022-09-29T22:59:02.853Z,8.65
2022-09-29T23:01:30.956Z,10.07
2022-09-29T23:03:58.488Z,10.18
2022-09-29T23:06:26.046Z,12.75
2022-09-29T23:08:55.657Z,14.43
2022-09-29T23:11:24.065Z,14.75
2022-09-29T23:13:53.046Z,18.52
2022-09-29T23:16:20.614Z,14.02
2022-09-29T23:18:53.542Z,15.50
2022-09-29T23:21:22.132Z,12.98
2022-09-29T23:23:56.172Z,16.98
2022-09-29T23:26:24.633Z,15.85
2022-09-29T23:28:52.564Z,17.63
2022-09-29T23:31:20.066Z,18.88
2022-09-29T23:33:56.121Z,13.52
2022-09-29T23:36:25.886Z,16.55
2022-09-29T23:39:13.661Z,15.75
2022-09-29T23:41:52.646Z,16.67
2022-09-29T23:44:22.970Z,14.02
2022-09-29T23:46:51.527Z,9.88
2022-09-29T23:49:22.480Z,10.20
2022-09-29T23:51:52.677Z,9.75
2022-09-29T23:54:22.565Z,9.63
2022-09-29T23:56:52.039Z,14.73
2022-09-29T23:59:20.045Z,10.45
